KMFR/MFR METAR and TAF weather

Enter ICAO airport designator
Station Type Date Time Source
KMFR METAR 2019/10/15 17:53 UTC NOAA

KMFR 151753Z 26003KT 10SM CLR 11/03 A3010 RMK AO2 SLP191 T01110033 10111 20033 50008


Station Type Date Time Source
KMFR Decoded METAR 2019/10/15 17:53 UTC NOAA

ROGUE VALLEY INTERNATIONAL AIRPORT, OR, United States (KMFR) 42-23N 122-53W 396M
Oct 15, 2019 - 01:53 PM EDT / 2019.10.15 1753 UTC
Wind: from the W (260 degrees) at 3 MPH (3 KT):0
Visibility: 10 mile(s):0
Sky conditions: clear
Temperature: 52.0 F (11.1 C)
Dew Point: 37.9 F (3.3 C)
Relative Humidity: 58%
Pressure (altimeter): 30.1 in. Hg (1019 hPa)
Pressure tendency: 0.02 inches (0.8 hPa) higher than three hours ago
ob: KMFR 151753Z 26003KT 10SM CLR 11/03 A3010 RMK AO2 SLP191 T01110033 10111 20033 50008
cycle: 18

Station Type Date Time Source
KMFR TAF 2019/10/15 18:34 UTC NOAA

TAF KMFR 151732Z 1518/1618 VRB03KT P6SM SCT250

Example: see airport list